Sioux Arrow — WAG6168 — position and weather

sailwx.info

Track history (hours):
 
Tides and Currents Weather Stations Pressure Air Temp Water Temp Dewpoint Dewpoint Depression Visibility Wind Speed Wind Dir Waves Ship Positions

Sioux Arrow

Owner: HARMON, JACK L, PORT ANGELES, WA. More information available from US FCC via Universal Licensing System and Coast Guard Vessel Documentation Center.

Last reported at 2018-Jun-22 03:30 UTC. Time now 2018-Jun-22 03:50 UTC.
Position N 48°31' W 122°36'.

Length 17 m; draft 1.4 m.

Type: Port tender. MMSI: 366973370.

Date/timePositionNaut miles runAvg speedWind from/ knotsBaromVisibWave heightAir tempDewpointWater temp
2018-Jun-22 03:30N 48°31' W 122°36'2 3.3
2018-Jun-22 03:00N 48°31' W 122°34'2 3.3
2018-Jun-22 02:30N 48°31' W 122°36'0 0.0
2018-Jun-22 02:00N 48°31' W 122°36'1 2.9
2018-Jun-22 01:30N 48°31' W 122°34'1 2.9
2018-Jun-22 01:00N 48°31' W 122°36'0 0.0
2018-Jun-22 00:30N 48°31' W 122°36'0 0.0
2018-Jun-22 00:00N 48°31' W 122°36'1 2.9
2018-Jun-21 23:30N 48°31' W 122°34'0 0.2
2018-Jun-21 23:00N 48°31' W 122°34'1 2.8
2018-Jun-21 22:30N 48°31' W 122°36'0 0.0
2018-Jun-21 22:00N 48°31' W 122°36'0 0.0
2018-Jun-21 21:30N 48°31' W 122°36'1 1.4
2018-Jun-21 21:00N 48°31' W 122°35'1 1.4
2018-Jun-21 20:30N 48°31' W 122°36'0 0.0
2018-Jun-21 20:00N 48°31' W 122°36'0 0.7
2018-Jun-21 19:30N 48°31' W 122°36'1 2.7
2018-Jun-21 19:00N 48°31' W 122°34'2 3.4
2018-Jun-21 18:30N 48°31' W 122°36'0 0.0
2018-Jun-21 18:00N 48°31' W 122°36'0 0.0
2018-Jun-21 17:30N 48°31' W 122°36'0 0.4
2018-Jun-21 17:00N 48°31' W 122°36'1 2.1
2018-Jun-21 16:30N 48°31' W 122°35'1 2.4
2018-Jun-21 16:00N 48°31' W 122°36'1 2.9
2018-Jun-21 15:30N 48°31' W 122°34'0 0.1
2018-Jun-21 15:00N 48°31' W 122°34'1 2.9
2018-Jun-21 14:30N 48°31' W 122°36'0 0.0
2018-Jun-21 06:42N 48°31' W 122°36'1 2.8
2018-Jun-21 06:30N 48°31' W 122°36'1 0.3
2018-Jun-21 04:37N 48°31' W 122°36'0 0.2
2018-Jun-21 04:30N 48°31' W 122°36'0 0.0
2018-Jun-21 04:00N 48°31' W 122°36'0 0.0
2018-Jun-21 03:30N 48°31' W 122°36'2 3.3
2018-Jun-21 03:00N 48°31' W 122°34'2 3.3
2018-Jun-21 02:30N 48°31' W 122°36'0 0.0
2018-Jun-21 02:00N 48°31' W 122°36'0 0.1
2018-Jun-21 01:30N 48°31' W 122°37'3 6.4
2018-Jun-21 00:59N 48°34' W 122°34'2 3.0
2018-Jun-21 00:16N 48°35' W 122°32'0 0.3
2018-Jun-20 23:57N 48°35' W 122°32'2 4.2
2018-Jun-20 23:30N 48°34' W 122°34'4 7.2
2018-Jun-20 23:00N 48°31' W 122°36'0 0.3
2018-Jun-20 22:30N 48°31' W 122°36'0 0.0
2018-Jun-20 22:00N 48°31' W 122°36'0 0.0
2018-Jun-20 21:30N 48°31' W 122°36'0 0.0
2018-Jun-20 21:00N 48°31' W 122°36'0 0.0
2018-Jun-20 20:30N 48°31' W 122°36'0 0.0
2018-Jun-20 20:00N 48°31' W 122°36'2 2.9
2018-Jun-20 19:28N 48°31' W 122°34'0 0.1
2018-Jun-20 19:00N 48°31' W 122°34'2 3.0
2018-Jun-20 18:30N 48°31' W 122°36'0 0.0
2018-Jun-20 18:00N 48°31' W 122°36'0 0.0
2018-Jun-20 17:30N 48°31' W 122°36'0 0.0
2018-Jun-20 17:00N 48°31' W 122°36'0 0.0
2018-Jun-20 16:30N 48°31' W 122°36'0 0.0
2018-Jun-20 16:00N 48°31' W 122°36'0 0.0
2018-Jun-20 15:30N 48°31' W 122°36'0 0.0
2018-Jun-20 15:00N 48°31' W 122°36'0 0.0
2018-Jun-20 14:30N 48°31' W 122°36'0 0.0
2018-Jun-20 14:00N 48°31' W 122°36'0 0.0
2018-Jun-20 13:30N 48°31' W 122°36'0 0.0
2018-Jun-20 06:07N 48°31' W 122°36'0 0.0
2018-Jun-20 06:00N 48°31' W 122°36'2 3.8
2018-Jun-20 05:30N 48°31' W 122°34'2 3.6
2018-Jun-20 04:59N 48°31' W 122°36'0 0.0
2018-Jun-19 00:12N 48°31' W 122°36'0 0.0
2018-Jun-19 00:00N 48°31' W 122°36'0 0.0
2018-Jun-18 23:30N 48°31' W 122°36'0 0.0
2018-Jun-18 22:59N 48°31' W 122°36'0 0.0
2018-Jun-18 22:30N 48°31' W 122°36'0 0.0
2018-Jun-18 22:00N 48°31' W 122°36'0 0.0
2018-Jun-18 21:30N 48°31' W 122°36'0 0.0
2018-Jun-18 21:00N 48°31' W 122°36'0 0.0
2018-Jun-18 20:30N 48°31' W 122°36'1 1.2
2018-Jun-18 20:00N 48°31' W 122°36'611.0
2018-Jun-18 19:29N 48°36' W 122°33'2 4.6
2018-Jun-18 19:00N 48°34' W 122°34'4 7.9
2018-Jun-18 18:30N 48°31' W 122°36'0 0.1
2018-Jun-18 18:00N 48°31' W 122°36'0 0.0
2018-Jun-18 17:30N 48°31' W 122°36'0 0.0
2018-Jun-18 17:00N 48°31' W 122°36'0 0.0
2018-Jun-18 16:30N 48°31' W 122°36'1 2.2
2018-Jun-18 16:00N 48°31' W 122°35'1 2.2
2018-Jun-18 15:30N 48°31' W 122°36'0 0.0
2018-Jun-18 04:24N 48°31' W 122°36'1 3.3
2018-Jun-18 04:00N 48°31' W 122°35'1 2.6
2018-Jun-18 03:30N 48°31' W 122°36'0 0.0
2018-Jun-18 00:06N 48°31' W 122°36'0 0.0
2018-Jun-18 00:00N 48°31' W 122°36'3 6.6
2018-Jun-17 23:28N 48°34' W 122°34'2 3.5
2018-Jun-17 23:00N 48°35' W 122°33'510.2
2018-Jun-17 22:30N 48°31' W 122°36'0 0.2
2018-Jun-17 22:00N 48°31' W 122°36'0 0.0
2018-Jun-17 21:29N 48°31' W 122°36'0 0.0
2018-Jun-17 21:00N 48°31' W 122°36'0 0.0
2018-Jun-17 20:31N 48°31' W 122°36'0 0.0
2018-Jun-17 20:00N 48°31' W 122°36'0 0.0
2018-Jun-17 19:30N 48°31' W 122°36'0 0.0
2018-Jun-17 19:00N 48°31' W 122°36'0 0.0
2018-Jun-17 18:30N 48°31' W 122°36'0 0.0
2018-Jun-17 18:00N 48°31' W 122°36'0 0.0
2018-Jun-17 17:31N 48°31' W 122°36'0 0.0
2018-Jun-17 17:00N 48°31' W 122°36'0 0.0
2018-Jun-17 16:30N 48°31' W 122°36'0 0.0
2018-Jun-17 16:00N 48°31' W 122°36'0 0.0
2018-Jun-17 15:30N 48°31' W 122°36'0 0.0
2018-Jun-17 15:00N 48°31' W 122°36'0 0.0
2018-Jun-17 14:30N 48°31' W 122°36'0 0.0
2018-Jun-17 13:57N 48°31' W 122°36'0 0.0
2018-Jun-17 13:31N 48°31' W 122°36'0 0.0
2018-Jun-17 13:00N 48°31' W 122°36'0 0.0
2018-Jun-17 12:30N 48°31' W 122°36'0 0.0
2018-Jun-17 12:01N 48°31' W 122°36'0 0.0
2018-Jun-17 11:30N 48°31' W 122°36'0 0.0
2018-Jun-17 11:01N 48°31' W 122°36'0 0.0
2018-Jun-17 10:31N 48°31' W 122°36'0 0.0
2018-Jun-17 10:00N 48°31' W 122°36'0 0.0
2018-Jun-17 09:30N 48°31' W 122°36'0 0.0
2018-Jun-17 09:01N 48°31' W 122°36'0 0.0
2018-Jun-17 08:30N 48°31' W 122°36'0 0.0
2018-Jun-17 08:00N 48°31' W 122°36'0 0.0
2018-Jun-17 07:30N 48°31' W 122°36'0 0.0
2018-Jun-17 07:00N 48°31' W 122°36'0 0.0
2018-Jun-17 06:31N 48°31' W 122°36'0 0.0
2018-Jun-17 06:01N 48°31' W 122°36'0 0.0
2018-Jun-17 05:31N 48°31' W 122°36'0 0.0
2018-Jun-17 05:00N 48°31' W 122°36'0 0.0
2018-Jun-17 04:31N 48°31' W 122°36'0 0.0
2018-Jun-17 04:00N 48°31' W 122°36'0 0.0
2018-Jun-17 03:31N 48°31' W 122°36'0 0.0
2018-Jun-17 03:00N 48°31' W 122°36'0 0.0
2018-Jun-17 02:30N 48°31' W 122°36'0 0.0
2018-Jun-17 02:00N 48°31' W 122°36'0 0.0
2018-Jun-17 01:30N 48°31' W 122°36'3 6.7
2018-Jun-17 01:00N 48°34' W 122°34'1 1.4
2018-Jun-17 00:30N 48°34' W 122°34'4 7.9
2018-Jun-17 00:00N 48°31' W 122°36'0 0.0
2018-Jun-16 23:30N 48°31' W 122°36'0 0.0
2018-Jun-16 23:00N 48°31' W 122°36'0 0.0
2018-Jun-16 22:30N 48°31' W 122°36'0 0.0
2018-Jun-16 22:00N 48°31' W 122°36'0 0.0
2018-Jun-16 21:30N 48°31' W 122°36'0 0.0
2018-Jun-16 21:00N 48°31' W 122°36'0 0.0
2018-Jun-16 20:30N 48°31' W 122°36'0 0.0
2018-Jun-16 20:00N 48°31' W 122°36'0 0.0
2018-Jun-16 19:30N 48°31' W 122°36'2 4.1
2018-Jun-16 19:00N 48°32' W 122°34'4 8.6
2018-Jun-16 18:30N 48°36' W 122°33'0 0.1
2018-Jun-16 18:00N 48°36' W 122°33'611.3
2018-Jun-16 17:30N 48°31' W 122°36'1 0.1
2018-Jun-16 12:02N 48°31' W 122°36'0 0.0
2018-Jun-16 12:00N 48°31' W 122°36'510.2
2018-Jun-16 11:30N 48°35' W 122°33'1 1.9
2018-Jun-16 11:00N 48°36' W 122°32'3 6.1
2018-Jun-16 10:30N 48°33' W 122°34'3 0.3
2018-Jun-16 01:47N 48°31' W 122°36'0 0.8
2018-Jun-16 01:29N 48°31' W 122°36'1 2.6
2018-Jun-16 01:00N 48°31' W 122°34'1 3.0
2018-Jun-16 00:30N 48°31' W 122°36'0 0.0
2018-Jun-16 00:00N 48°31' W 122°36'0 0.0
2018-Jun-15 23:30N 48°31' W 122°36'1 2.9
2018-Jun-15 23:00N 48°31' W 122°35'5 9.8
2018-Jun-15 22:30N 48°36' W 122°34'0 0.2
2018-Jun-15 22:00N 48°36' W 122°34'0 0.1
2018-Jun-15 21:28N 48°36' W 122°34'5 9.7
2018-Jun-15 21:00N 48°32' W 122°34'2 3.6
2018-Jun-15 20:30N 48°31' W 122°36'3 5.4
2018-Jun-15 19:59N 48°33' W 122°34'1 1.3
2018-Jun-15 19:28N 48°34' W 122°34'3 5.7
2018-Jun-15 18:59N 48°31' W 122°35'510.7
2018-Jun-15 18:30N 48°36' W 122°34'0 0.3
2018-Jun-15 18:01N 48°36' W 122°34'4 7.5
2018-Jun-15 17:30N 48°32' W 122°34'2 3.7
2018-Jun-15 16:57N 48°31' W 122°36'0 0.0
2018-Jun-15 09:53N 48°31' W 122°36'2 4.2
2018-Jun-15 09:30N 48°31' W 122°34'2 3.2
2018-Jun-15 09:00N 48°31' W 122°36'0 0.0
2018-Jun-14 22:05N 48°31' W 122°36'0 0.0
2018-Jun-14 22:00N 48°31' W 122°36'0 0.0
2018-Jun-14 21:30N 48°31' W 122°36'0 0.0
2018-Jun-14 21:00N 48°31' W 122°36'0 0.0
2018-Jun-14 20:30N 48°31' W 122°36'0 0.0
2018-Jun-14 20:00N 48°31' W 122°36'4 7.9
2018-Jun-14 19:30N 48°34' W 122°34'2 4.0
2018-Jun-14 19:00N 48°36' W 122°32'510.3
2018-Jun-14 18:30N 48°31' W 122°35'1 1.8
2018-Jun-14 18:00N 48°31' W 122°37'0 0.1
2018-Jun-14 17:30N 48°31' W 122°36'0 0.0
2018-Jun-14 17:00N 48°31' W 122°36'0 0.0
2018-Jun-14 16:30N 48°31' W 122°36'2 3.7
2018-Jun-14 16:00N 48°32' W 122°34'4 7.9
2018-Jun-14 15:30N 48°36' W 122°32'510.4
2018-Jun-14 14:59N 48°31' W 122°36'0 0.0
2018-Jun-14 00:47N 48°31' W 122°36'1 4.1
2018-Jun-14 00:30N 48°31' W 122°35'1 2.3
2018-Jun-14 00:00N 48°31' W 122°36'0 0.0
2018-Jun-13 23:30N 48°31' W 122°36'0 0.0
2018-Jun-13 23:00N 48°31' W 122°36'0 0.0
2018-Jun-13 22:30N 48°31' W 122°36'0 0.0
2018-Jun-13 20:24N 48°31' W 122°37'0 0.0
2018-Jun-13 20:00N 48°31' W 122°37'0 0.0
2018-Jun-13 19:30N 48°31' W 122°37'0 0.0
2018-Jun-13 18:57N 48°31' W 122°37'0 0.1
2018-Jun-13 18:29N 48°31' W 122°36'0 0.1
2018-Jun-13 17:57N 48°31' W 122°36'0 0.1
2018-Jun-13 17:30N 48°31' W 122°36'1 1.3
2018-Jun-13 17:00N 48°31' W 122°36'2 4.4
2018-Jun-13 16:29N 48°33' W 122°35'3 5.4
2018-Jun-13 16:00N 48°31' W 122°36'4 7.0
2018-Jun-13 15:30N 48°34' W 122°36'4 7.2
2018-Jun-13 15:00N 48°31' W 122°36'0 0.0
2018-Jun-13 03:14N 48°31' W 122°36'0 0.0
2018-Jun-13 03:00N 48°31' W 122°36'0 0.0
2018-Jun-13 02:31N 48°31' W 122°36'0 0.0
2018-Jun-13 02:01N 48°31' W 122°36'0 0.0
2018-Jun-13 01:30N 48°31' W 122°36'0 0.0
2018-Jun-13 01:00N 48°31' W 122°36'2 3.7
2018-Jun-13 00:31N 48°32' W 122°34'4 7.8
2018-Jun-12 23:58N 48°36' W 122°34'0 0.1
2018-Jun-12 23:30N 48°36' W 122°34'611.0
2018-Jun-12 23:00N 48°31' W 122°36'0 0.6
2018-Jun-12 22:30N 48°31' W 122°36'0 0.1
2018-Jun-12 22:00N 48°31' W 122°37'2 3.6
2018-Jun-12 21:30N 48°32' W 122°34'5 9.1
2018-Jun-12 21:00N 48°36' W 122°34'0 0.1
2018-Jun-12 20:30N 48°36' W 122°34'5 9.8
2018-Jun-12 20:00N 48°31' W 122°35'1 2.6
2018-Jun-12 19:30N 48°31' W 122°36'0 0.1
2018-Jun-12 19:00N 48°31' W 122°36'0 0.0
2018-Jun-12 18:30N 48°31' W 122°36'2 3.7
2018-Jun-12 18:00N 48°31' W 122°34'2 3.7
2018-Jun-12 17:30N 48°31' W 122°36'2 3.9
2018-Jun-12 16:59N 48°32' W 122°34'4 8.3
2018-Jun-12 16:30N 48°36' W 122°34'611.0
2018-Jun-12 16:00N 48°31' W 122°36'0 0.5
2018-Jun-12 15:29N 48°31' W 122°36'1 2.8
2018-Jun-12 15:00N 48°31' W 122°35'1 2.5
2018-Jun-12 14:29N 48°31' W 122°36'0 0.0
2018-Jun-12 10:32N 48°31' W 122°36'0 0.0
2018-Jun-12 10:30N 48°31' W 122°36'0 0.0
2018-Jun-12 10:00N 48°31' W 122°36'0 0.0
2018-Jun-12 09:31N 48°31' W 122°36'0 0.0
2018-Jun-12 09:01N 48°31' W 122°36'0 0.0
2018-Jun-12 08:30N 48°31' W 122°36'0 0.0
2018-Jun-12 08:01N 48°31' W 122°36'0 0.0
2018-Jun-12 07:30N 48°31' W 122°36'0 0.0
2018-Jun-12 07:00N 48°31' W 122°36'0 0.0
2018-Jun-12 06:30N 48°31' W 122°36'4 7.6
2018-Jun-12 06:01N 48°34' W 122°34'2 3.3
2018-Jun-12 05:30N 48°36' W 122°34'510.6
2018-Jun-12 05:00N 48°31' W 122°36'0 0.0
2018-Jun-12 04:30N 48°31' W 122°36'0 0.0
2018-Jun-12 04:01N 48°31' W 122°36'0 0.0
2018-Jun-12 03:30N 48°31' W 122°36'  
Track history (hours):
 
Tides and Currents Weather Stations Pressure Air Temp Water Temp Dewpoint Dewpoint Depression Visibility Wind Speed Wind Dir Waves Ship Positions

Sioux Arrow

Owner: HARMON, JACK L, PORT ANGELES, WA. More information available from US FCC via Universal Licensing System and Coast Guard Vessel Documentation Center.

Last reported at 2018-Jun-22 03:30 UTC. Time now 2018-Jun-22 03:50 UTC.
Position N 48°31' W 122°36'.

Length 17 m; draft 1.4 m.

Type: Port tender. MMSI: 366973370.

Date/timePositionNaut miles runAvg speedWind from/ knotsBaromVisibWave heightAir tempDewpointWater temp
2018-Jun-22 03:30N 48°31' W 122°36'2 3.3
2018-Jun-22 03:00N 48°31' W 122°34'2 3.3
2018-Jun-22 02:30N 48°31' W 122°36'0 0.0
2018-Jun-22 02:00N 48°31' W 122°36'1 2.9
2018-Jun-22 01:30N 48°31' W 122°34'1 2.9
2018-Jun-22 01:00N 48°31' W 122°36'0 0.0
2018-Jun-22 00:30N 48°31' W 122°36'0 0.0
2018-Jun-22 00:00N 48°31' W 122°36'1 2.9
2018-Jun-21 23:30N 48°31' W 122°34'0 0.2
2018-Jun-21 23:00N 48°31' W 122°34'1 2.8
2018-Jun-21 22:30N 48°31' W 122°36'0 0.0
2018-Jun-21 22:00N 48°31' W 122°36'0 0.0
2018-Jun-21 21:30N 48°31' W 122°36'1 1.4
2018-Jun-21 21:00N 48°31' W 122°35'1 1.4
2018-Jun-21 20:30N 48°31' W 122°36'0 0.0
2018-Jun-21 20:00N 48°31' W 122°36'0 0.7
2018-Jun-21 19:30N 48°31' W 122°36'1 2.7
2018-Jun-21 19:00N 48°31' W 122°34'2 3.4
2018-Jun-21 18:30N 48°31' W 122°36'0 0.0
2018-Jun-21 18:00N 48°31' W 122°36'0 0.0
2018-Jun-21 17:30N 48°31' W 122°36'0 0.4
2018-Jun-21 17:00N 48°31' W 122°36'1 2.1
2018-Jun-21 16:30N 48°31' W 122°35'1 2.4
2018-Jun-21 16:00N 48°31' W 122°36'1 2.9
2018-Jun-21 15:30N 48°31' W 122°34'0 0.1
2018-Jun-21 15:00N 48°31' W 122°34'1 2.9
2018-Jun-21 14:30N 48°31' W 122°36'0 0.0
2018-Jun-21 06:42N 48°31' W 122°36'1 2.8
2018-Jun-21 06:30N 48°31' W 122°36'1 0.3
2018-Jun-21 04:37N 48°31' W 122°36'0 0.2
2018-Jun-21 04:30N 48°31' W 122°36'0 0.0
2018-Jun-21 04:00N 48°31' W 122°36'0 0.0
2018-Jun-21 03:30N 48°31' W 122°36'2 3.3
2018-Jun-21 03:00N 48°31' W 122°34'2 3.3
2018-Jun-21 02:30N 48°31' W 122°36'0 0.0
2018-Jun-21 02:00N 48°31' W 122°36'0 0.1
2018-Jun-21 01:30N 48°31' W 122°37'3 6.4
2018-Jun-21 00:59N 48°34' W 122°34'2 3.0
2018-Jun-21 00:16N 48°35' W 122°32'0 0.3
2018-Jun-20 23:57N 48°35' W 122°32'2 4.2
2018-Jun-20 23:30N 48°34' W 122°34'4 7.2
2018-Jun-20 23:00N 48°31' W 122°36'0 0.3
2018-Jun-20 22:30N 48°31' W 122°36'0 0.0
2018-Jun-20 22:00N 48°31' W 122°36'0 0.0
2018-Jun-20 21:30N 48°31' W 122°36'0 0.0
2018-Jun-20 21:00N 48°31' W 122°36'0 0.0
2018-Jun-20 20:30N 48°31' W 122°36'0 0.0
2018-Jun-20 20:00N 48°31' W 122°36'2 2.9
2018-Jun-20 19:28N 48°31' W 122°34'0 0.1
2018-Jun-20 19:00N 48°31' W 122°34'2 3.0
2018-Jun-20 18:30N 48°31' W 122°36'0 0.0
2018-Jun-20 18:00N 48°31' W 122°36'0 0.0
2018-Jun-20 17:30N 48°31' W 122°36'0 0.0
2018-Jun-20 17:00N 48°31' W 122°36'0 0.0
2018-Jun-20 16:30N 48°31' W 122°36'0 0.0
2018-Jun-20 16:00N 48°31' W 122°36'0 0.0
2018-Jun-20 15:30N 48°31' W 122°36'0 0.0
2018-Jun-20 15:00N 48°31' W 122°36'0 0.0
2018-Jun-20 14:30N 48°31' W 122°36'0 0.0
2018-Jun-20 14:00N 48°31' W 122°36'0 0.0
2018-Jun-20 13:30N 48°31' W 122°36'0 0.0
2018-Jun-20 06:07N 48°31' W 122°36'0 0.0
2018-Jun-20 06:00N 48°31' W 122°36'2 3.8
2018-Jun-20 05:30N 48°31' W 122°34'2 3.6
2018-Jun-20 04:59N 48°31' W 122°36'0 0.0
2018-Jun-19 00:12N 48°31' W 122°36'0 0.0
2018-Jun-19 00:00N 48°31' W 122°36'0 0.0
2018-Jun-18 23:30N 48°31' W 122°36'0 0.0
2018-Jun-18 22:59N 48°31' W 122°36'0 0.0
2018-Jun-18 22:30N 48°31' W 122°36'0 0.0
2018-Jun-18 22:00N 48°31' W 122°36'0 0.0
2018-Jun-18 21:30N 48°31' W 122°36'0 0.0
2018-Jun-18 21:00N 48°31' W 122°36'0 0.0
2018-Jun-18 20:30N 48°31' W 122°36'1 1.2
2018-Jun-18 20:00N 48°31' W 122°36'611.0
2018-Jun-18 19:29N 48°36' W 122°33'2 4.6
2018-Jun-18 19:00N 48°34' W 122°34'4 7.9
2018-Jun-18 18:30N 48°31' W 122°36'0 0.1
2018-Jun-18 18:00N 48°31' W 122°36'0 0.0
2018-Jun-18 17:30N 48°31' W 122°36'0 0.0
2018-Jun-18 17:00N 48°31' W 122°36'0 0.0
2018-Jun-18 16:30N 48°31' W 122°36'1 2.2
2018-Jun-18 16:00N 48°31' W 122°35'1 2.2
2018-Jun-18 15:30N 48°31' W 122°36'0 0.0
2018-Jun-18 04:24N 48°31' W 122°36'1 3.3
2018-Jun-18 04:00N 48°31' W 122°35'1 2.6
2018-Jun-18 03:30N 48°31' W 122°36'0 0.0
2018-Jun-18 00:06N 48°31' W 122°36'0 0.0
2018-Jun-18 00:00N 48°31' W 122°36'3 6.6
2018-Jun-17 23:28N 48°34' W 122°34'2 3.5
2018-Jun-17 23:00N 48°35' W 122°33'510.2
2018-Jun-17 22:30N 48°31' W 122°36'0 0.2
2018-Jun-17 22:00N 48°31' W 122°36'0 0.0
2018-Jun-17 21:29N 48°31' W 122°36'0 0.0
2018-Jun-17 21:00N 48°31' W 122°36'0 0.0
2018-Jun-17 20:31N 48°31' W 122°36'0 0.0
2018-Jun-17 20:00N 48°31' W 122°36'0 0.0
2018-Jun-17 19:30N 48°31' W 122°36'0 0.0
2018-Jun-17 19:00N 48°31' W 122°36'0 0.0
2018-Jun-17 18:30N 48°31' W 122°36'0 0.0
2018-Jun-17 18:00N 48°31' W 122°36'0 0.0
2018-Jun-17 17:31N 48°31' W 122°36'0 0.0
2018-Jun-17 17:00N 48°31' W 122°36'0 0.0
2018-Jun-17 16:30N 48°31' W 122°36'0 0.0
2018-Jun-17 16:00N 48°31' W 122°36'0 0.0
2018-Jun-17 15:30N 48°31' W 122°36'0 0.0
2018-Jun-17 15:00N 48°31' W 122°36'0 0.0
2018-Jun-17 14:30N 48°31' W 122°36'0 0.0
2018-Jun-17 13:57N 48°31' W 122°36'0 0.0
2018-Jun-17 13:31N 48°31' W 122°36'0 0.0
2018-Jun-17 13:00N 48°31' W 122°36'0 0.0
2018-Jun-17 12:30N 48°31' W 122°36'0 0.0
2018-Jun-17 12:01N 48°31' W 122°36'0 0.0
2018-Jun-17 11:30N 48°31' W 122°36'0 0.0
2018-Jun-17 11:01N 48°31' W 122°36'0 0.0
2018-Jun-17 10:31N 48°31' W 122°36'0 0.0
2018-Jun-17 10:00N 48°31' W 122°36'0 0.0
2018-Jun-17 09:30N 48°31' W 122°36'0 0.0
2018-Jun-17 09:01N 48°31' W 122°36'0 0.0
2018-Jun-17 08:30N 48°31' W 122°36'0 0.0
2018-Jun-17 08:00N 48°31' W 122°36'0 0.0
2018-Jun-17 07:30N 48°31' W 122°36'0 0.0
2018-Jun-17 07:00N 48°31' W 122°36'0 0.0
2018-Jun-17 06:31N 48°31' W 122°36'0 0.0
2018-Jun-17 06:01N 48°31' W 122°36'0 0.0
2018-Jun-17 05:31N 48°31' W 122°36'0 0.0
2018-Jun-17 05:00N 48°31' W 122°36'0 0.0
2018-Jun-17 04:31N 48°31' W 122°36'0 0.0
2018-Jun-17 04:00N 48°31' W 122°36'0 0.0
2018-Jun-17 03:31N 48°31' W 122°36'0 0.0
2018-Jun-17 03:00N 48°31' W 122°36'0 0.0
2018-Jun-17 02:30N 48°31' W 122°36'0 0.0
2018-Jun-17 02:00N 48°31' W 122°36'0 0.0
2018-Jun-17 01:30N 48°31' W 122°36'3 6.7
2018-Jun-17 01:00N 48°34' W 122°34'1 1.4
2018-Jun-17 00:30N 48°34' W 122°34'4 7.9
2018-Jun-17 00:00N 48°31' W 122°36'0 0.0
2018-Jun-16 23:30N 48°31' W 122°36'0 0.0
2018-Jun-16 23:00N 48°31' W 122°36'0 0.0
2018-Jun-16 22:30N 48°31' W 122°36'0 0.0
2018-Jun-16 22:00N 48°31' W 122°36'0 0.0
2018-Jun-16 21:30N 48°31' W 122°36'0 0.0
2018-Jun-16 21:00N 48°31' W 122°36'0 0.0
2018-Jun-16 20:30N 48°31' W 122°36'0 0.0
2018-Jun-16 20:00N 48°31' W 122°36'0 0.0
2018-Jun-16 19:30N 48°31' W 122°36'2 4.1
2018-Jun-16 19:00N 48°32' W 122°34'4 8.6
2018-Jun-16 18:30N 48°36' W 122°33'0 0.1
2018-Jun-16 18:00N 48°36' W 122°33'611.3
2018-Jun-16 17:30N 48°31' W 122°36'1 0.1
2018-Jun-16 12:02N 48°31' W 122°36'0 0.0
2018-Jun-16 12:00N 48°31' W 122°36'510.2
2018-Jun-16 11:30N 48°35' W 122°33'1 1.9
2018-Jun-16 11:00N 48°36' W 122°32'3 6.1
2018-Jun-16 10:30N 48°33' W 122°34'3 0.3
2018-Jun-16 01:47N 48°31' W 122°36'0 0.8
2018-Jun-16 01:29N 48°31' W 122°36'1 2.6
2018-Jun-16 01:00N 48°31' W 122°34'1 3.0
2018-Jun-16 00:30N 48°31' W 122°36'0 0.0
2018-Jun-16 00:00N 48°31' W 122°36'0 0.0
2018-Jun-15 23:30N 48°31' W 122°36'1 2.9
2018-Jun-15 23:00N 48°31' W 122°35'5 9.8
2018-Jun-15 22:30N 48°36' W 122°34'0 0.2
2018-Jun-15 22:00N 48°36' W 122°34'0 0.1
2018-Jun-15 21:28N 48°36' W 122°34'5 9.7
2018-Jun-15 21:00N 48°32' W 122°34'2 3.6
2018-Jun-15 20:30N 48°31' W 122°36'3 5.4
2018-Jun-15 19:59N 48°33' W 122°34'1 1.3
2018-Jun-15 19:28N 48°34' W 122°34'3 5.7
2018-Jun-15 18:59N 48°31' W 122°35'510.7
2018-Jun-15 18:30N 48°36' W 122°34'0 0.3
2018-Jun-15 18:01N 48°36' W 122°34'4 7.5
2018-Jun-15 17:30N 48°32' W 122°34'2 3.7
2018-Jun-15 16:57N 48°31' W 122°36'0 0.0
2018-Jun-15 09:53N 48°31' W 122°36'2 4.2
2018-Jun-15 09:30N 48°31' W 122°34'2 3.2
2018-Jun-15 09:00N 48°31' W 122°36'0 0.0
2018-Jun-14 22:05N 48°31' W 122°36'0 0.0
2018-Jun-14 22:00N 48°31' W 122°36'0 0.0
2018-Jun-14 21:30N 48°31' W 122°36'0 0.0
2018-Jun-14 21:00N 48°31' W 122°36'0 0.0
2018-Jun-14 20:30N 48°31' W 122°36'0 0.0
2018-Jun-14 20:00N 48°31' W 122°36'4 7.9
2018-Jun-14 19:30N 48°34' W 122°34'2 4.0
2018-Jun-14 19:00N 48°36' W 122°32'510.3
2018-Jun-14 18:30N 48°31' W 122°35'1 1.8
2018-Jun-14 18:00N 48°31' W 122°37'0 0.1
2018-Jun-14 17:30N 48°31' W 122°36'0 0.0
2018-Jun-14 17:00N 48°31' W 122°36'0 0.0
2018-Jun-14 16:30N 48°31' W 122°36'2 3.7
2018-Jun-14 16:00N 48°32' W 122°34'4 7.9
2018-Jun-14 15:30N 48°36' W 122°32'510.4
2018-Jun-14 14:59N 48°31' W 122°36'0 0.0
2018-Jun-14 00:47N 48°31' W 122°36'1 4.1
2018-Jun-14 00:30N 48°31' W 122°35'1 2.3
2018-Jun-14 00:00N 48°31' W 122°36'0 0.0
2018-Jun-13 23:30N 48°31' W 122°36'0 0.0
2018-Jun-13 23:00N 48°31' W 122°36'0 0.0
2018-Jun-13 22:30N 48°31' W 122°36'0 0.0
2018-Jun-13 20:24N 48°31' W 122°37'0 0.0
2018-Jun-13 20:00N 48°31' W 122°37'0 0.0
2018-Jun-13 19:30N 48°31' W 122°37'0 0.0
2018-Jun-13 18:57N 48°31' W 122°37'0 0.1
2018-Jun-13 18:29N 48°31' W 122°36'0 0.1
2018-Jun-13 17:57N 48°31' W 122°36'0 0.1
2018-Jun-13 17:30N 48°31' W 122°36'1 1.3
2018-Jun-13 17:00N 48°31' W 122°36'2 4.4
2018-Jun-13 16:29N 48°33' W 122°35'3 5.4
2018-Jun-13 16:00N 48°31' W 122°36'4 7.0
2018-Jun-13 15:30N 48°34' W 122°36'4 7.2
2018-Jun-13 15:00N 48°31' W 122°36'0 0.0
2018-Jun-13 03:14N 48°31' W 122°36'0 0.0
2018-Jun-13 03:00N 48°31' W 122°36'0 0.0
2018-Jun-13 02:31N 48°31' W 122°36'0 0.0
2018-Jun-13 02:01N 48°31' W 122°36'0 0.0
2018-Jun-13 01:30N 48°31' W 122°36'0 0.0
2018-Jun-13 01:00N 48°31' W 122°36'2 3.7
2018-Jun-13 00:31N 48°32' W 122°34'4 7.8
2018-Jun-12 23:58N 48°36' W 122°34'0 0.1
2018-Jun-12 23:30N 48°36' W 122°34'611.0
2018-Jun-12 23:00N 48°31' W 122°36'0 0.6
2018-Jun-12 22:30N 48°31' W 122°36'0 0.1
2018-Jun-12 22:00N 48°31' W 122°37'2 3.6
2018-Jun-12 21:30N 48°32' W 122°34'5 9.1
2018-Jun-12 21:00N 48°36' W 122°34'0 0.1
2018-Jun-12 20:30N 48°36' W 122°34'5 9.8
2018-Jun-12 20:00N 48°31' W 122°35'1 2.6
2018-Jun-12 19:30N 48°31' W 122°36'0 0.1
2018-Jun-12 19:00N 48°31' W 122°36'0 0.0
2018-Jun-12 18:30N 48°31' W 122°36'2 3.7
2018-Jun-12 18:00N 48°31' W 122°34'2 3.7
2018-Jun-12 17:30N 48°31' W 122°36'2 3.9
2018-Jun-12 16:59N 48°32' W 122°34'4 8.3
2018-Jun-12 16:30N 48°36' W 122°34'611.0
2018-Jun-12 16:00N 48°31' W 122°36'0 0.5
2018-Jun-12 15:29N 48°31' W 122°36'1 2.8
2018-Jun-12 15:00N 48°31' W 122°35'1 2.5
2018-Jun-12 14:29N 48°31' W 122°36'0 0.0
2018-Jun-12 10:32N 48°31' W 122°36'0 0.0
2018-Jun-12 10:30N 48°31' W 122°36'0 0.0
2018-Jun-12 10:00N 48°31' W 122°36'0 0.0
2018-Jun-12 09:31N 48°31' W 122°36'0 0.0
2018-Jun-12 09:01N 48°31' W 122°36'0 0.0
2018-Jun-12 08:30N 48°31' W 122°36'0 0.0
2018-Jun-12 08:01N 48°31' W 122°36'0 0.0
2018-Jun-12 07:30N 48°31' W 122°36'0 0.0
2018-Jun-12 07:00N 48°31' W 122°36'0 0.0
2018-Jun-12 06:30N 48°31' W 122°36'4 7.6
2018-Jun-12 06:01N 48°34' W 122°34'2 3.3
2018-Jun-12 05:30N 48°36' W 122°34'510.6
2018-Jun-12 05:00N 48°31' W 122°36'0 0.0
2018-Jun-12 04:30N 48°31' W 122°36'0 0.0
2018-Jun-12 04:01N 48°31' W 122°36'0 0.0
2018-Jun-12 03:30N 48°31' W 122°36'  

Dump ship's entire track history